Time;durP1;ratioP1;P1;durP2;ratioP2;P2;SDS_P1;SDS_P2;PMS_P1;PMS_P2;Temp;Humidity;BMP_temperature;BMP_pressure;BME280_temperature;BME280_humidity;BME280_pressure;Samples;Min_cycle;Max_cycle;Signal;HPM_P1;HPM_P2
2023/01/29 00:01:52;;;;;;;120.77;41.60;;;-2.30;99.90;;;;;;5061888;28;20196;-84
2023/01/29 00:04:17;;;;;;;125.90;41.77;;;-2.30;99.90;;;;;;5044164;28;20259;-83
2023/01/29 00:06:43;;;;;;;120.93;38.97;;;-2.40;99.90;;;;;;5061826;28;20165;-84
2023/01/29 00:09:10;;;;;;;120.40;38.80;;;-2.40;99.90;;;;;;5061074;28;20624;-83
2023/01/29 00:11:36;;;;;;;123.97;43.00;;;-2.40;99.90;;;;;;5060908;28;20198;-83
2023/01/29 00:14:01;;;;;;;118.97;36.77;;;-2.40;99.90;;;;;;5061647;28;20160;-83
2023/01/29 00:16:27;;;;;;;123.90;36.90;;;-2.30;99.90;;;;;;5061651;28;20164;-83
2023/01/29 00:18:53;;;;;;;119.60;38.20;;;-2.40;99.90;;;;;;5043714;28;20644;-83
2023/01/29 00:21:23;;;;;;;117.10;39.20;;;-2.40;99.90;;;;;;5061589;28;20181;-83
2023/01/29 00:23:50;;;;;;;123.03;39.47;;;-2.50;99.90;;;;;;5042994;28;20541;-83
2023/01/29 00:26:16;;;;;;;114.75;39.03;;;-2.50;99.90;;;;;;5061199;28;20163;-83
2023/01/29 00:28:42;;;;;;;118.90;38.55;;;-2.50;99.90;;;;;;5043337;28;20218;-83
2023/01/29 00:31:17;;;;;;;126.30;40.70;;;-2.50;99.90;;;;;;5060667;28;20196;-84
2023/01/29 00:33:42;;;;;;;116.97;38.97;;;-2.50;99.90;;;;;;5043494;28;20262;-83
2023/01/29 00:36:10;;;;;;;126.07;40.23;;;-2.50;99.90;;;;;;5060496;28;20215;-83
2023/01/29 00:38:37;;;;;;;113.35;37.65;;;-2.50;99.90;;;;;;5042837;28;20172;-83
2023/01/29 00:46:40;;;;;;;117.07;38.03;;;-2.50;99.90;;;;;;5061485;28;20156;-83
2023/01/29 00:49:06;;;;;;;127.77;37.40;;;-2.50;99.90;;;;;;5060407;28;20165;-83
2023/01/29 00:51:32;;;;;;;122.95;36.78;;;-2.50;99.90;;;;;;5060645;28;20441;-84
2023/01/29 00:54:01;;;;;;;127.00;37.70;;;-2.60;99.90;;;;;;5043544;28;20184;-83
2023/01/29 00:56:30;;;;;;;119.13;37.50;;;-2.60;99.90;;;;;;5061300;28;20153;-83
2023/01/29 00:58:56;;;;;;;124.55;41.38;;;-2.60;99.90;;;;;;5060485;28;20164;-83
2023/01/29 01:04:08;;;;;;;115.95;39.92;;;-2.60;99.90;;;;;;5060443;28;20156;-83
2023/01/29 01:06:36;;;;;;;116.30;36.35;;;-2.60;99.90;;;;;;5043161;28;20165;-83
2023/01/29 01:11:46;;;;;;;113.22;34.58;;;-2.60;99.90;;;;;;5060518;28;20275;-83
2023/01/29 01:14:17;;;;;;;118.30;39.50;;;-2.60;99.90;;;;;;5042926;28;20203;-84
2023/01/29 01:16:45;;;;;;;118.45;37.65;;;-2.70;99.90;;;;;;5060192;28;20203;-83
2023/01/29 01:19:11;;;;;;;122.20;35.95;;;-2.60;99.90;;;;;;5060081;28;20345;-83
2023/01/29 01:21:37;;;;;;;115.45;35.25;;;-2.60;99.90;;;;;;5060857;28;20184;-83
2023/01/29 01:24:06;;;;;;;118.00;36.00;;;-2.60;99.90;;;;;;5060296;28;20223;-83
2023/01/29 01:26:32;;;;;;;114.97;38.13;;;-2.60;99.90;;;;;;5042747;28;20978;-83
2023/01/29 01:28:58;;;;;;;118.60;35.72;;;-2.70;99.90;;;;;;5042485;28;20172;-83
2023/01/29 01:31:24;;;;;;;114.68;37.47;;;-2.70;99.90;;;;;;5060217;28;20183;-83
2023/01/29 01:33:50;;;;;;;119.80;37.38;;;-2.80;99.90;;;;;;5060330;28;20527;-83
2023/01/29 01:36:17;;;;;;;117.78;39.53;;;-2.80;99.90;;;;;;5043008;28;20247;-83
2023/01/29 01:38:43;;;;;;;114.22;35.75;;;-2.80;99.90;;;;;;5060488;28;20239;-83
2023/01/29 01:41:14;;;;;;;119.25;39.88;;;-2.80;99.90;;;;;;5060211;28;20176;-84
2023/01/29 01:44:06;;;;;;;124.20;36.75;;;-2.80;99.90;;;;;;5042701;28;20200;-83
2023/01/29 01:46:36;;;;;;;114.13;34.70;;;-2.80;99.90;;;;;;5057173;28;20204;-83
2023/01/29 01:49:08;;;;;;;125.88;37.60;;;-2.90;99.90;;;;;;5060058;28;20219;-83
2023/01/29 01:51:39;;;;;;;110.45;36.80;;;-2.90;99.90;;;;;;5060283;28;20189;-83
2023/01/29 01:54:20;;;;;;;120.20;36.72;;;-2.90;99.90;;;;;;5060867;28;20145;-83
2023/01/29 01:56:54;;;;;;;114.88;34.60;;;-2.90;99.90;;;;;;5042430;28;20161;-82
2023/01/29 01:59:21;;;;;;;116.85;34.95;;;-2.80;99.90;;;;;;5043281;28;20502;-83
2023/01/29 02:01:52;;;;;;;115.43;36.40;;;-2.80;99.90;;;;;;5060602;28;20220;-84
2023/01/29 02:10:08;;;;;;;120.93;36.65;;;-2.90;99.90;;;;;;5060448;28;20241;-83
2023/01/29 02:12:36;;;;;;;126.68;38.83;;;-2.90;99.90;;;;;;5060212;28;20250;-83
2023/01/29 02:15:02;;;;;;;110.68;36.03;;;-2.90;99.90;;;;;;5061292;28;20183;-83
2023/01/29 02:17:28;;;;;;;112.88;35.83;;;-2.90;99.90;;;;;;5046270;28;20169;-83
2023/01/29 02:20:16;;;;;;;112.07;37.50;;;-2.90;99.90;;;;;;5064192;28;20183;-83
2023/01/29 02:22:46;;;;;;;113.28;37.25;;;-2.90;99.90;;;;;;5063571;28;20160;-83
2023/01/29 02:25:30;;;;;;;127.28;40.38;;;-2.90;99.90;;;;;;5063825;28;20639;-83
2023/01/29 02:28:04;;;;;;;120.97;38.75;;;-2.90;99.90;;;;;;5063753;28;20203;-83
2023/01/29 02:30:46;;;;;;;121.80;39.63;;;-2.90;99.90;;;;;;5063357;28;20203;-83
2023/01/29 02:33:27;;;;;;;119.93;37.58;;;-3.00;99.90;;;;;;5045468;28;20192;-83
2023/01/29 02:36:21;;;;;;;116.30;38.40;;;-2.90;99.90;;;;;;5045448;28;20156;-83
2023/01/29 02:39:04;;;;;;;110.05;38.17;;;-2.90;99.90;;;;;;5063444;28;20153;-83
2023/01/29 02:42:11;;;;;;;112.05;37.30;;;-3.00;99.90;;;;;;5063004;28;20218;-83
2023/01/29 02:44:48;;;;;;;122.78;38.58;;;-2.90;99.90;;;;;;5017198;28;20176;-83
2023/01/29 02:47:49;;;;;;;116.15;36.13;;;-3.00;99.90;;;;;;5046179;28;20191;-82
2023/01/29 02:50:25;;;;;;;116.75;39.47;;;-3.00;99.90;;;;;;5059925;28;20266;-83
2023/01/29 02:53:15;;;;;;;119.07;39.33;;;-3.10;99.90;;;;;;5063176;28;20215;-82
2023/01/29 02:55:58;;;;;;;110.13;34.58;;;-3.00;99.90;;;;;;5063024;28;20179;-83
2023/01/29 02:58:27;;;;;;;119.43;35.95;;;-2.90;99.90;;;;;;5062959;28;20182;-83
2023/01/29 03:00:57;;;;;;;120.68;37.88;;;-2.80;99.90;;;;;;5063118;28;20187;-83
2023/01/29 03:03:31;;;;;;;120.10;39.90;;;-2.90;99.90;;;;;;5062760;28;20185;-83
2023/01/29 03:06:19;;;;;;;112.45;39.65;;;-3.00;99.90;;;;;;5063196;28;20569;-84
2023/01/29 03:08:59;;;;;;;115.22;37.95;;;-2.90;99.90;;;;;;5045642;28;20171;-83
2023/01/29 03:11:35;;;;;;;118.82;38.33;;;-3.00;99.90;;;;;;5062367;28;20211;-83
2023/01/29 03:15:10;;;;;;;119.88;41.92;;;-3.00;99.90;;;;;;5062422;28;20163;-83
2023/01/29 03:17:21;;;;;;;111.60;36.05;;;-3.00;99.90;;;;;;5061674;28;20172;-84
2023/01/29 03:19:47;;;;;;;117.53;38.80;;;-3.10;99.90;;;;;;5062745;28;20168;-83
2023/01/29 03:22:16;;;;;;;118.05;40.35;;;-3.00;99.90;;;;;;5062389;28;20184;-83
2023/01/29 03:33:20;;;;;;;114.40;37.55;;;-3.00;99.90;;;;;;5062051;28;20227;-83
2023/01/29 03:35:59;;;;;;;114.45;37.65;;;-3.00;99.90;;;;;;5044376;28;20705;-83
2023/01/29 03:38:30;;;;;;;117.95;38.47;;;-2.90;99.90;;;;;;5062453;28;20191;-83
2023/01/29 03:41:02;;;;;;;117.50;37.92;;;-3.00;99.90;;;;;;5062370;28;20200;-83
2023/01/29 03:43:45;;;;;;;117.35;37.47;;;-3.10;99.90;;;;;;5062097;28;20157;-83
2023/01/29 03:46:28;;;;;;;120.50;38.63;;;-3.10;99.90;;;;;;5044689;28;20157;-83
2023/01/29 03:49:17;;;;;;;119.20;37.10;;;-3.10;99.90;;;;;;5062782;28;20622;-83
2023/01/29 03:51:49;;;;;;;115.80;37.90;;;-3.20;99.90;;;;;;5038316;28;20208;-83
2023/01/29 03:54:56;;;;;;;119.93;37.47;;;-3.20;99.90;;;;;;5061996;28;20512;-83
2023/01/29 03:57:29;;;;;;;116.72;37.33;;;-3.10;99.90;;;;;;4984130;28;20166;-82
2023/01/29 04:00:16;;;;;;;114.55;37.90;;;-3.10;99.90;;;;;;5054930;28;20233;-83
2023/01/29 04:03:06;;;;;;;113.63;40.05;;;-3.10;99.90;;;;;;5043662;28;20168;-83
2023/01/29 04:05:50;;;;;;;109.55;34.28;;;-3.10;99.90;;;;;;5061367;28;20175;-83
2023/01/29 04:08:23;;;;;;;113.25;35.97;;;-3.10;99.90;;;;;;5061294;28;20149;-83
2023/01/29 04:10:52;;;;;;;118.22;38.83;;;-3.10;99.90;;;;;;5043715;28;20189;-83
2023/01/29 04:13:22;;;;;;;113.28;36.05;;;-3.10;99.90;;;;;;5061120;28;20279;-84
2023/01/29 04:15:58;;;;;;;111.68;36.08;;;-3.10;99.90;;;;;;5061743;28;20152;-83
2023/01/29 04:18:24;;;;;;;109.82;35.55;;;-3.20;99.90;;;;;;5061414;28;20144;-83
2023/01/29 04:20:50;;;;;;;111.33;36.33;;;-3.20;99.90;;;;;;5043529;28;20531;-83
2023/01/29 04:23:25;;;;;;;112.65;36.25;;;-3.10;99.90;;;;;;5043698;28;20782;-83
2023/01/29 04:26:20;;;;;;;110.72;36.17;;;-3.10;99.90;;;;;;5061184;28;20167;-83
2023/01/29 04:29:28;;;;;;;117.63;34.97;;;-3.10;99.90;;;;;;5043162;28;20586;-84
2023/01/29 04:32:05;;;;;;;118.22;38.83;;;-3.20;99.90;;;;;;5060857;28;20196;-83
2023/01/29 04:34:56;;;;;;;116.85;38.45;;;-3.30;99.90;;;;;;5061542;28;20159;-83
2023/01/29 04:37:36;;;;;;;112.15;35.47;;;-3.30;99.90;;;;;;5041889;28;20244;-83
2023/01/29 04:40:13;;;;;;;118.47;36.97;;;-3.30;99.90;;;;;;5061130;28;20188;-83
2023/01/29 04:43:08;;;;;;;116.10;36.80;;;-3.30;99.90;;;;;;5060875;28;20156;-84
2023/01/29 04:45:52;;;;;;;120.57;40.63;;;-3.20;99.90;;;;;;5060854;28;20596;-83
2023/01/29 04:48:27;;;;;;;120.13;36.60;;;-3.30;99.90;;;;;;5061445;28;20163;-83
2023/01/29 04:51:23;;;;;;;123.78;37.75;;;-3.30;99.90;;;;;;5061388;28;20689;-83
2023/01/29 04:54:01;;;;;;;106.80;33.95;;;-3.20;99.90;;;;;;5055809;28;20181;-83
2023/01/29 04:56:48;;;;;;;114.05;34.17;;;-3.20;99.90;;;;;;5043271;28;20164;-83
2023/01/29 04:59:20;;;;;;;120.65;38.05;;;-3.10;99.90;;;;;;5061605;28;20160;-83
2023/01/29 05:01:46;;;;;;;119.85;38.92;;;-3.20;99.90;;;;;;5061005;28;20180;-83
2023/01/29 05:04:16;;;;;;;108.78;38.92;;;-3.30;99.90;;;;;;5061471;28;20169;-83
2023/01/29 05:06:45;;;;;;;115.50;38.42;;;-3.30;99.90;;;;;;5060603;28;20156;-84
2023/01/29 05:09:13;;;;;;;107.90;33.15;;;-3.20;99.90;;;;;;5060405;28;20164;-83
2023/01/29 05:11:40;;;;;;;116.15;38.58;;;-3.30;99.90;;;;;;5060592;28;20238;-83
2023/01/29 05:14:10;;;;;;;115.28;38.60;;;-3.30;99.90;;;;;;5060556;28;20179;-83
2023/01/29 05:16:46;;;;;;;108.90;35.08;;;-3.30;99.90;;;;;;5060734;28;20226;-84
2023/01/29 05:19:14;;;;;;;120.82;36.22;;;-3.30;99.90;;;;;;5043342;28;20227;-83
2023/01/29 05:21:43;;;;;;;113.32;37.03;;;-3.30;99.90;;;;;;5042445;28;20185;-83
2023/01/29 05:24:18;;;;;;;115.85;38.88;;;-3.30;99.90;;;;;;5060851;28;20168;-84
2023/01/29 05:29:30;;;;;;;109.35;33.50;;;-3.40;99.90;;;;;;5130332;22;20756;-80
2023/01/29 05:31:56;;;;;;;116.70;37.77;;;-3.30;99.90;;;;;;5055265;28;20208;-79
2023/01/29 05:34:22;;;;;;;115.93;40.07;;;-3.30;99.90;;;;;;5055317;28;20157;-79
2023/01/29 05:36:48;;;;;;;119.63;38.35;;;-3.30;99.90;;;;;;5055127;28;20866;-79
2023/01/29 05:39:14;;;;;;;116.70;35.53;;;-3.20;99.90;;;;;;5055440;28;20197;-79
2023/01/29 05:41:40;;;;;;;120.50;36.97;;;-3.30;99.90;;;;;;5055179;28;20236;-79
2023/01/29 05:44:05;;;;;;;114.07;37.13;;;-3.20;99.90;;;;;;5055115;28;20486;-79
2023/01/29 05:46:31;;;;;;;115.33;37.77;;;-3.30;99.90;;;;;;5055284;28;20168;-79
2023/01/29 05:48:58;;;;;;;121.27;36.73;;;-3.30;99.90;;;;;;5056382;28;20165;-79
2023/01/29 05:51:23;;;;;;;111.68;36.47;;;-3.30;99.90;;;;;;5059247;28;20180;-79
2023/01/29 05:53:49;;;;;;;112.53;37.33;;;-3.20;99.90;;;;;;5058890;28;20229;-79
2023/01/29 05:56:15;;;;;;;117.87;38.27;;;-3.20;99.90;;;;;;5041675;28;20177;-79
2023/01/29 05:58:40;;;;;;;103.47;33.87;;;-3.30;99.90;;;;;;5059088;28;20156;-79
2023/01/29 06:01:10;;;;;;;121.03;40.67;;;-3.10;99.90;;;;;;5058758;28;20191;-79
2023/01/29 06:03:36;;;;;;;120.15;41.78;;;-3.20;99.90;;;;;;5058919;28;20242;-79
2023/01/29 06:06:01;;;;;;;121.13;40.23;;;-3.20;99.90;;;;;;5058672;28;20536;-79
2023/01/29 06:08:27;;;;;;;120.10;36.60;;;-3.20;99.90;;;;;;5059256;28;20172;-79
2023/01/29 06:10:53;;;;;;;117.40;39.20;;;-3.20;99.90;;;;;;5058844;28;20427;-79
2023/01/29 06:13:18;;;;;;;113.13;33.13;;;-3.10;99.90;;;;;;5059034;28;20192;-79
2023/01/29 06:15:44;;;;;;;112.73;35.67;;;-3.10;99.90;;;;;;5058408;28;20165;-79
2023/01/29 06:18:09;;;;;;;119.40;39.77;;;-3.10;99.90;;;;;;5058846;28;20157;-79
2023/01/29 06:20:36;;;;;;;116.37;35.30;;;-3.10;99.90;;;;;;5059209;28;20234;-79
2023/01/29 06:23:02;;;;;;;116.03;38.60;;;-3.20;99.90;;;;;;5059069;28;20170;-79
2023/01/29 06:25:27;;;;;;;116.47;39.13;;;-3.20;99.90;;;;;;5058957;28;20228;-82
2023/01/29 06:27:55;;;;;;;109.83;37.20;;;-3.20;99.90;;;;;;5058365;28;20175;-82
2023/01/29 06:30:21;;;;;;;113.40;36.95;;;-3.20;99.90;;;;;;5059251;28;20208;-82
2023/01/29 06:32:47;;;;;;;105.47;33.27;;;-3.20;99.90;;;;;;5058743;28;20185;-82
2023/01/29 06:35:13;;;;;;;115.20;34.10;;;-3.30;99.90;;;;;;5058707;28;20399;-82
2023/01/29 06:37:38;;;;;;;115.50;36.03;;;-3.30;99.90;;;;;;5058460;28;20624;-82
2023/01/29 06:40:04;;;;;;;114.80;36.10;;;-3.30;99.90;;;;;;5058739;28;20165;-82
2023/01/29 06:42:30;;;;;;;111.63;38.08;;;-3.30;99.90;;;;;;5058687;28;20581;-82
2023/01/29 06:44:56;;;;;;;119.40;35.97;;;-3.20;99.90;;;;;;5059244;28;20191;-82
2023/01/29 06:47:22;;;;;;;111.53;35.07;;;-3.30;99.90;;;;;;5058908;28;20160;-82
2023/01/29 06:49:48;;;;;;;112.50;35.53;;;-3.30;99.90;;;;;;5058390;28;20575;-80
2023/01/29 06:52:14;;;;;;;112.32;36.80;;;-3.30;99.90;;;;;;5058100;28;20572;-79
2023/01/29 06:54:40;;;;;;;106.83;32.93;;;-3.30;99.90;;;;;;5058601;28;20244;-79
2023/01/29 06:57:05;;;;;;;115.87;33.17;;;-3.30;99.90;;;;;;5041088;28;20403;-79
2023/01/29 06:59:31;;;;;;;113.97;36.53;;;-3.30;99.90;;;;;;5058079;28;20600;-80
2023/01/29 07:01:57;;;;;;;107.67;32.70;;;-3.30;99.90;;;;;;5057483;28;20326;-80
2023/01/29 07:04:22;;;;;;;115.20;34.47;;;-3.30;99.90;;;;;;5057859;28;20172;-79
2023/01/29 07:06:48;;;;;;;110.93;35.23;;;-3.30;99.90;;;;;;5058564;28;20172;-80
2023/01/29 07:09:14;;;;;;;114.67;37.30;;;-3.30;99.90;;;;;;5057678;28;20181;-80
2023/01/29 07:11:40;;;;;;;114.53;34.20;;;-3.30;99.90;;;;;;5040054;28;20189;-79
2023/01/29 07:14:06;;;;;;;112.07;35.07;;;-3.30;99.90;;;;;;5057952;28;20187;-80
2023/01/29 07:16:32;;;;;;;104.60;31.05;;;-3.30;99.90;;;;;;5057888;28;20910;-79
2023/01/29 07:18:57;;;;;;;113.57;36.40;;;-3.30;99.90;;;;;;5057925;28;20165;-80
2023/01/29 07:21:23;;;;;;;113.93;35.73;;;-3.20;99.90;;;;;;5058124;28;20673;-79
2023/01/29 07:23:49;;;;;;;107.50;36.58;;;-3.10;99.90;;;;;;5057579;28;20191;-80
2023/01/29 07:26:15;;;;;;;120.17;37.77;;;-3.10;99.90;;;;;;5057867;28;20210;-80
2023/01/29 07:28:41;;;;;;;117.28;37.42;;;-3.00;99.90;;;;;;5057208;28;20414;-80
2023/01/29 07:31:10;;;;;;;114.20;35.90;;;-2.90;99.90;;;;;;5057509;28;20204;-80
2023/01/29 07:33:35;;;;;;;116.07;36.05;;;-2.80;99.90;;;;;;5057359;28;20469;-80
2023/01/29 07:36:08;;;;;;;114.03;41.43;;;-2.70;99.90;;;;;;5057618;28;20519;-80
2023/01/29 07:38:34;;;;;;;116.47;39.67;;;-2.60;99.90;;;;;;5057318;28;20218;-80
2023/01/29 07:41:00;;;;;;;115.90;37.83;;;-2.60;99.90;;;;;;5057197;28;20192;-79
2023/01/29 07:43:25;;;;;;;123.70;42.30;;;-2.50;99.90;;;;;;5057821;28;20176;-80
2023/01/29 07:46:10;;;;;;;115.80;41.03;;;-2.40;99.90;;;;;;5057900;28;20192;-80
2023/01/29 07:48:36;;;;;;;122.68;39.20;;;-2.40;99.90;;;;;;5057341;28;20157;-80
2023/01/29 07:51:02;;;;;;;117.20;42.37;;;-2.30;99.90;;;;;;5039203;28;20188;-80
2023/01/29 07:53:28;;;;;;;117.50;39.93;;;-2.20;99.90;;;;;;5057548;28;20453;-80
2023/01/29 07:55:54;;;;;;;120.88;42.25;;;-2.10;99.90;;;;;;5057720;28;20426;-80
2023/01/29 07:58:20;;;;;;;120.78;38.17;;;-2.00;99.90;;;;;;5057114;28;20239;-80
2023/01/29 08:00:46;;;;;;;118.40;37.97;;;-2.00;99.90;;;;;;5057115;28;20714;-80
2023/01/29 08:03:15;;;;;;;119.50;39.87;;;-2.00;99.90;;;;;;5038801;28;20414;-80
2023/01/29 08:05:41;;;;;;;112.88;39.45;;;-2.00;99.90;;;;;;5056902;28;20160;-80
2023/01/29 08:08:07;;;;;;;120.88;39.55;;;-2.00;99.90;;;;;;5057284;28;20170;-80
2023/01/29 08:10:33;;;;;;;112.90;38.63;;;-1.90;99.90;;;;;;5057465;28;20712;-80
2023/01/29 08:13:00;;;;;;;120.90;38.97;;;-1.80;99.90;;;;;;5038190;28;20564;-80
2023/01/29 08:15:27;;;;;;;116.45;37.20;;;-1.70;99.90;;;;;;5056953;28;20161;-80
2023/01/29 08:17:53;;;;;;;111.45;38.50;;;-1.70;99.90;;;;;;5057458;28;20172;-80
2023/01/29 08:20:19;;;;;;;114.17;40.30;;;-1.60;99.90;;;;;;5056615;28;20169;-80
2023/01/29 08:22:45;;;;;;;117.63;41.88;;;-1.60;99.90;;;;;;5039450;28;20180;-80
2023/01/29 08:25:11;;;;;;;118.23;38.70;;;-1.60;99.90;;;;;;5056976;28;20164;-80
2023/01/29 08:27:37;;;;;;;114.53;41.45;;;-1.60;99.90;;;;;;5056522;28;20403;-80
2023/01/29 08:30:04;;;;;;;116.13;42.03;;;-1.60;99.90;;;;;;5056457;28;20670;-80
2023/01/29 08:32:30;;;;;;;114.25;37.05;;;-1.50;99.90;;;;;;5056237;28;20249;-80
2023/01/29 08:34:56;;;;;;;114.03;36.37;;;-1.50;99.90;;;;;;5056995;28;20161;-80
2023/01/29 08:37:22;;;;;;;118.83;37.90;;;-1.50;99.90;;;;;;5056592;28;20172;-80
2023/01/29 08:39:47;;;;;;;120.47;38.73;;;-1.50;99.90;;;;;;5056851;28;20184;-80
2023/01/29 08:42:13;;;;;;;111.70;38.17;;;-1.40;99.90;;;;;;5056438;28;20242;-80
2023/01/29 08:44:38;;;;;;;119.60;40.50;;;-1.40;99.90;;;;;;5056374;28;20175;-80
2023/01/29 08:47:04;;;;;;;117.47;40.03;;;-1.40;99.90;;;;;;5056643;28;20153;-79
2023/01/29 08:49:30;;;;;;;114.90;38.20;;;-1.40;99.90;;;;;;5056909;28;20169;-79
2023/01/29 08:51:56;;;;;;;117.80;38.77;;;-1.30;99.90;;;;;;5056047;28;20224;-80
2023/01/29 08:54:22;;;;;;;119.67;41.50;;;-1.30;99.90;;;;;;5057129;28;20161;-80
2023/01/29 08:56:48;;;;;;;120.53;40.38;;;-1.30;99.90;;;;;;5056248;28;20463;-80
2023/01/29 08:59:14;;;;;;;134.35;40.67;;;-1.30;99.90;;;;;;5056866;28;20219;-79
2023/01/29 09:01:40;;;;;;;115.90;38.77;;;-1.30;99.90;;;;;;5056219;28;20180;-80
2023/01/29 09:04:06;;;;;;;122.87;41.30;;;-1.20;99.90;;;;;;5056756;28;20406;-79
2023/01/29 09:06:32;;;;;;;119.97;38.97;;;-1.20;99.90;;;;;;5056446;28;20164;-80
2023/01/29 09:08:57;;;;;;;116.90;39.67;;;-1.20;99.90;;;;;;5056670;28;20210;-79
2023/01/29 09:11:23;;;;;;;120.70;39.87;;;-1.20;99.90;;;;;;5056068;28;20468;-80
2023/01/29 09:13:49;;;;;;;116.37;39.00;;;-1.10;99.90;;;;;;5038511;28;20198;-79
2023/01/29 09:16:14;;;;;;;122.57;38.83;;;-1.10;99.90;;;;;;5056360;28;20964;-80
2023/01/29 09:18:40;;;;;;;117.70;40.77;;;-1.10;99.90;;;;;;5056186;28;20654;-79
2023/01/29 09:21:06;;;;;;;113.70;39.20;;;-1.00;99.90;;;;;;5056494;28;20199;-79
2023/01/29 09:23:32;;;;;;;122.83;38.47;;;-1.00;99.90;;;;;;5056237;28;20164;-79
2023/01/29 09:25:57;;;;;;;122.00;37.60;;;-1.00;99.90;;;;;;5038708;28;20176;-80
2023/01/29 09:28:23;;;;;;;118.80;40.07;;;-1.00;99.90;;;;;;5056786;28;20171;-80
2023/01/29 09:30:49;;;;;;;122.57;41.30;;;-1.00;99.90;;;;;;5038283;28;20208;-80
2023/01/29 09:33:14;;;;;;;114.70;37.20;;;-0.90;99.90;;;;;;5056146;28;20880;-80
2023/01/29 09:35:42;;;;;;;115.80;37.43;;;-0.90;99.90;;;;;;5056393;28;20658;-80
2023/01/29 09:38:09;;;;;;;118.13;39.50;;;-0.90;99.90;;;;;;5056945;28;20157;-80
2023/01/29 09:41:00;;;;;;;117.18;35.58;;;-0.90;99.90;;;;;;5038526;28;20625;-80
2023/01/29 09:43:47;;;;;;;119.30;36.38;;;-0.90;99.90;;;;;;5037887;28;20188;-80
2023/01/29 09:46:21;;;;;;;118.82;39.60;;;-0.70;99.90;;;;;;5056814;28;20168;-80
2023/01/29 09:48:51;;;;;;;123.78;39.90;;;-0.70;99.90;;;;;;5056504;28;20145;-80
2023/01/29 09:51:30;;;;;;;119.00;40.78;;;-0.70;99.90;;;;;;5056883;28;20212;-80
2023/01/29 09:54:11;;;;;;;118.18;40.13;;;-0.60;99.90;;;;;;5056182;28;20199;-80
2023/01/29 09:56:37;;;;;;;118.82;38.40;;;-0.50;99.90;;;;;;5038517;28;20160;-80
2023/01/29 09:59:02;;;;;;;115.80;39.57;;;-0.40;99.90;;;;;;5056400;28;20165;-80
2023/01/29 10:01:47;;;;;;;117.00;38.30;;;-0.40;99.90;;;;;;5056217;28;20180;-80
2023/01/29 10:04:18;;;;;;;114.90;38.72;;;-0.40;99.90;;;;;;5056410;28;20176;-80
2023/01/29 10:06:49;;;;;;;124.45;40.80;;;-0.30;99.90;;;;;;5038339;28;20173;-80
2023/01/29 10:09:51;;;;;;;120.30;39.80;;;-0.20;99.90;;;;;;5057922;28;20168;-80
2023/01/29 10:12:32;;;;;;;114.40;40.85;;;-0.20;99.90;;;;;;5056295;28;20222;-80
2023/01/29 10:15:37;;;;;;;120.85;38.45;;;-0.10;99.90;;;;;;5037901;28;20221;-80
2023/01/29 10:18:28;;;;;;;119.30;40.75;;;0.00;99.90;;;;;;5056207;28;20160;-80
2023/01/29 10:20:59;;;;;;;119.28;39.63;;;0.10;99.90;;;;;;5056781;28;20195;-80
2023/01/29 10:23:32;;;;;;;117.25;39.65;;;0.20;99.90;;;;;;5056692;28;20516;-80
2023/01/29 10:25:58;;;;;;;117.28;37.72;;;0.30;99.90;;;;;;5056349;28;20184;-80
2023/01/29 10:28:42;;;;;;;116.82;41.30;;;0.20;99.90;;;;;;5056162;28;20169;-80
2023/01/29 10:31:14;;;;;;;109.63;35.45;;;0.30;99.90;;;;;;5056285;28;20333;-80
2023/01/29 10:33:41;;;;;;;114.95;36.70;;;0.30;99.90;;;;;;5056498;28;20188;-80
2023/01/29 10:36:16;;;;;;;113.95;36.03;;;0.50;99.90;;;;;;5058031;28;20153;-80
2023/01/29 10:38:51;;;;;;;122.07;37.67;;;0.60;99.90;;;;;;5059997;28;20151;-80
2023/01/29 10:41:39;;;;;;;130.80;36.95;;;0.60;99.90;;;;;;5060389;28;20191;-80
2023/01/29 10:44:29;;;;;;;108.78;32.30;;;0.60;99.90;;;;;;5060454;28;20149;-80
2023/01/29 10:47:07;;;;;;;115.88;31.23;;;0.70;99.90;;;;;;5060284;28;20153;-80
2023/01/29 10:49:47;;;;;;;115.88;29.73;;;0.80;99.90;;;;;;5060012;28;20157;-80
2023/01/29 10:52:26;;;;;;;115.43;28.65;;;1.00;99.90;;;;;;5059739;28;20622;-80
2023/01/29 10:55:28;;;;;;;110.47;28.90;;;0.90;99.90;;;;;;5041989;28;20582;-80
2023/01/29 10:58:17;;;;;;;116.35;29.58;;;0.90;99.90;;;;;;5060695;28;20576;-80
2023/01/29 11:00:43;;;;;;;114.63;28.65;;;0.90;99.90;;;;;;5059993;28;20185;-80
2023/01/29 11:03:25;;;;;;;118.03;31.10;;;0.80;99.90;;;;;;5060778;28;20222;-80
2023/01/29 11:05:58;;;;;;;111.97;26.55;;;0.70;99.90;;;;;;5042441;28;20152;-80
2023/01/29 11:08:30;;;;;;;124.15;29.10;;;0.60;99.90;;;;;;5060983;28;20159;-80
2023/01/29 11:11:06;;;;;;;117.25;30.80;;;0.50;99.90;;;;;;5061218;28;20195;-80
2023/01/29 11:13:38;;;;;;;113.22;29.25;;;0.50;99.90;;;;;;5061423;28;20280;-80
2023/01/29 11:16:06;;;;;;;117.32;31.35;;;0.60;99.90;;;;;;5060744;28;20145;-80
2023/01/29 11:18:52;;;;;;;118.88;29.60;;;0.60;99.90;;;;;;5058925;28;20167;-82
2023/01/29 11:21:17;;;;;;;120.00;31.13;;;0.60;99.90;;;;;;5058050;28;20184;-82
2023/01/29 11:23:43;;;;;;;110.10;27.87;;;0.80;99.90;;;;;;5057727;28;20172;-81
2023/01/29 11:26:12;;;;;;;116.73;31.10;;;0.80;99.90;;;;;;5060992;28;20218;-81
2023/01/29 11:28:46;;;;;;;122.00;30.90;;;1.00;99.90;;;;;;5061898;28;20180;-80
2023/01/29 11:31:27;;;;;;;120.32;31.35;;;1.00;99.90;;;;;;5211293;22;20219;-84
2023/01/29 11:34:14;;;;;;;116.47;31.00;;;1.10;99.90;;;;;;5058846;28;20200;-83
2023/01/29 11:36:48;;;;;;;114.53;28.83;;;1.20;99.90;;;;;;5041408;28;20583;-83
2023/01/29 11:39:18;;;;;;;114.47;29.92;;;1.20;99.90;;;;;;5059353;28;20156;-83
2023/01/29 11:41:51;;;;;;;114.13;30.67;;;1.30;99.90;;;;;;5058985;28;20656;-85
2023/01/29 11:44:58;;;;;;;114.68;29.80;;;1.30;99.90;;;;;;5058653;28;20540;-83
2023/01/29 11:47:29;;;;;;;114.93;29.45;;;1.50;99.90;;;;;;5039485;28;20251;-82
2023/01/29 11:50:19;;;;;;;112.70;31.17;;;1.50;99.90;;;;;;5041230;28;20200;-83
2023/01/29 11:52:48;;;;;;;117.85;30.30;;;1.50;99.90;;;;;;5057774;28;20262;-83
2023/01/29 11:55:31;;;;;;;116.40;30.17;;;1.60;99.90;;;;;;5039363;28;20168;-82
2023/01/29 11:58:16;;;;;;;112.28;28.83;;;1.80;99.90;;;;;;5058504;28;20269;-83
2023/01/29 12:00:47;;;;;;;122.28;28.05;;;1.70;99.90;;;;;;5058864;28;20184;-83
2023/01/29 12:03:21;;;;;;;112.53;28.10;;;1.90;99.90;;;;;;5058839;28;20241;-83
2023/01/29 12:05:59;;;;;;;112.85;30.08;;;1.80;97.40;;;;;;5057211;28;20168;-83
2023/01/29 12:08:33;;;;;;;111.53;30.63;;;1.60;96.10;;;;;;5041225;28;20171;-83
2023/01/29 12:11:29;;;;;;;123.07;31.83;;;1.70;98.00;;;;;;5058631;28;20184;-83
2023/01/29 12:14:03;;;;;;;116.65;28.48;;;1.80;98.20;;;;;;5040585;28;20659;-83
2023/01/29 12:16:55;;;;;;;119.72;28.65;;;1.90;97.20;;;;;;5041117;28;20535;-83
2023/01/29 12:19:27;;;;;;;112.35;28.27;;;1.90;95.50;;;;;;5057433;28;20183;-82
2023/01/29 12:22:10;;;;;;;117.68;28.35;;;2.00;95.20;;;;;;5040820;28;20185;-83
2023/01/29 12:25:18;;;;;;;113.95;30.15;;;2.10;93.50;;;;;;5058501;28;20243;-83
2023/01/29 12:27:59;;;;;;;119.65;29.30;;;2.00;90.90;;;;;;5014948;28;20720;-83
2023/01/29 12:31:00;;;;;;;116.25;28.50;;;1.90;93.10;;;;;;5058375;28;20192;-82
2023/01/29 12:33:42;;;;;;;123.80;29.38;;;1.90;94.10;;;;;;5059343;28;20211;-84
2023/01/29 12:36:16;;;;;;;125.80;33.92;;;2.00;94.30;;;;;;5057860;28;20153;-83
2023/01/29 12:38:44;;;;;;;114.68;30.40;;;2.10;94.40;;;;;;5039681;28;20161;-83
2023/01/29 12:41:28;;;;;;;115.75;30.15;;;2.10;92.90;;;;;;5057525;28;20190;-83
2023/01/29 12:44:00;;;;;;;119.95;28.67;;;2.30;92.20;;;;;;5040138;28;20255;-83
2023/01/29 12:46:36;;;;;;;116.10;28.35;;;2.30;90.00;;;;;;5040089;28;20588;-84
2023/01/29 12:49:06;;;;;;;119.50;30.08;;;2.30;89.70;;;;;;5040063;28;20164;-84
2023/01/29 12:51:57;;;;;;;112.13;27.70;;;2.30;91.60;;;;;;5039479;28;20196;-83
2023/01/29 12:54:40;;;;;;;116.10;29.70;;;2.30;89.40;;;;;;5058947;28;20187;-84
2023/01/29 12:57:41;;;;;;;113.18;31.20;;;2.40;90.30;;;;;;5058204;28;20154;-83
2023/01/29 13:00:39;;;;;;;111.78;25.92;;;2.60;90.70;;;;;;5039265;28;20174;-84
2023/01/29 13:03:19;;;;;;;117.43;29.35;;;2.90;90.40;;;;;;5012827;28;20176;-84
2023/01/29 13:05:59;;;;;;;109.35;26.38;;;2.80;74.50;;;;;;5039897;28;20156;-84
2023/01/29 13:08:43;;;;;;;114.28;29.40;;;2.90;74.90;;;;;;5057575;28;20163;-84
2023/01/29 13:11:17;;;;;;;112.88;27.67;;;2.80;71.50;;;;;;5057514;28;20215;-84
2023/01/29 13:13:53;;;;;;;107.97;25.35;;;2.80;74.10;;;;;;5057585;28;20180;-84
2023/01/29 13:16:23;;;;;;;112.35;28.25;;;2.80;81.60;;;;;;5040282;28;20164;-84
2023/01/29 13:18:55;;;;;;;112.07;29.35;;;2.70;74.90;;;;;;5056526;28;20165;-84